sensor_id;sensor_type;location;lat;lon;timestamp;P1;durP1;ratioP1;P2;durP2;ratioP2
48751;SDS011;34544;48.836;9.174;2023-03-20T00:00:40;1.20;;;0.70;;
48751;SDS011;34544;48.836;9.174;2023-03-20T00:03:09;0.63;;;0.60;;
48751;SDS011;34544;48.836;9.174;2023-03-20T00:05:36;0.70;;;0.55;;
48751;SDS011;34544;48.836;9.174;2023-03-20T00:08:02;3.70;;;0.88;;
48751;SDS011;34544;48.836;9.174;2023-03-20T00:10:30;0.40;;;0.40;;
48751;SDS011;34544;48.836;9.174;2023-03-20T00:13:02;0.80;;;0.80;;
48751;SDS011;34544;48.836;9.174;2023-03-20T00:15:34;2.10;;;1.38;;
48751;SDS011;34544;48.836;9.174;2023-03-20T00:18:02;1.20;;;0.82;;
48751;SDS011;34544;48.836;9.174;2023-03-20T00:20:35;1.67;;;1.15;;
48751;SDS011;34544;48.836;9.174;2023-03-20T00:23:01;5.32;;;1.83;;
48751;SDS011;34544;48.836;9.174;2023-03-20T00:25:28;1.27;;;0.95;;
48751;SDS011;34544;48.836;9.174;2023-03-20T00:27:53;2.20;;;1.45;;
48751;SDS011;34544;48.836;9.174;2023-03-20T00:30:22;1.23;;;1.13;;
48751;SDS011;34544;48.836;9.174;2023-03-20T00:35:23;1.77;;;1.52;;
48751;SDS011;34544;48.836;9.174;2023-03-20T00:37:52;2.22;;;1.80;;
48751;SDS011;34544;48.836;9.174;2023-03-20T00:40:19;2.75;;;2.35;;
48751;SDS011;34544;48.836;9.174;2023-03-20T00:42:45;2.67;;;2.15;;
48751;SDS011;34544;48.836;9.174;2023-03-20T00:45:16;2.83;;;2.28;;
48751;SDS011;34544;48.836;9.174;2023-03-20T00:47:44;2.60;;;2.33;;
48751;SDS011;34544;48.836;9.174;2023-03-20T00:50:16;2.35;;;1.85;;
48751;SDS011;34544;48.836;9.174;2023-03-20T00:52:44;2.47;;;2.25;;
48751;SDS011;34544;48.836;9.174;2023-03-20T00:55:10;2.95;;;2.45;;
48751;SDS011;34544;48.836;9.174;2023-03-20T00:57:41;2.20;;;2.00;;
48751;SDS011;34544;48.836;9.174;2023-03-20T01:02:49;2.58;;;2.35;;
48751;SDS011;34544;48.836;9.174;2023-03-20T01:05:16;2.38;;;2.17;;
48751;SDS011;34544;48.836;9.174;2023-03-20T01:07:43;2.78;;;2.17;;
48751;SDS011;34544;48.836;9.174;2023-03-20T01:10:10;2.45;;;2.25;;
48751;SDS011;34544;48.836;9.174;2023-03-20T01:12:40;1.77;;;1.67;;
48751;SDS011;34544;48.836;9.174;2023-03-20T01:15:14;2.65;;;2.22;;
48751;SDS011;34544;48.836;9.174;2023-03-20T01:17:43;3.17;;;2.35;;
48751;SDS011;34544;48.836;9.174;2023-03-20T01:20:14;2.60;;;2.10;;
48751;SDS011;34544;48.836;9.174;2023-03-20T01:22:42;2.97;;;2.63;;
48751;SDS011;34544;48.836;9.174;2023-03-20T01:25:08;2.28;;;2.08;;
48751;SDS011;34544;48.836;9.174;2023-03-20T01:27:34;3.45;;;2.17;;
48751;SDS011;34544;48.836;9.174;2023-03-20T01:30:00;3.50;;;2.25;;
48751;SDS011;34544;48.836;9.174;2023-03-20T01:32:26;3.83;;;2.40;;
48751;SDS011;34544;48.836;9.174;2023-03-20T01:34:51;3.33;;;2.33;;
48751;SDS011;34544;48.836;9.174;2023-03-20T01:37:23;3.03;;;2.55;;
48751;SDS011;34544;48.836;9.174;2023-03-20T01:39:50;2.45;;;2.25;;
48751;SDS011;34544;48.836;9.174;2023-03-20T01:42:17;3.95;;;2.67;;
48751;SDS011;34544;48.836;9.174;2023-03-20T01:44:43;2.33;;;2.00;;
48751;SDS011;34544;48.836;9.174;2023-03-20T01:47:20;4.10;;;2.28;;
48751;SDS011;34544;48.836;9.174;2023-03-20T01:52:44;4.75;;;2.10;;
48751;SDS011;34544;48.836;9.174;2023-03-20T01:55:11;2.85;;;1.77;;
48751;SDS011;34544;48.836;9.174;2023-03-20T01:57:38;2.42;;;2.00;;
48751;SDS011;34544;48.836;9.174;2023-03-20T02:00:05;6.05;;;2.00;;
48751;SDS011;34544;48.836;9.174;2023-03-20T02:02:42;9.02;;;1.75;;
48751;SDS011;34544;48.836;9.174;2023-03-20T02:05:14;2.85;;;1.13;;
48751;SDS011;34544;48.836;9.174;2023-03-20T02:07:44;2.53;;;1.48;;
48751;SDS011;34544;48.836;9.174;2023-03-20T02:10:17;1.42;;;1.33;;
48751;SDS011;34544;48.836;9.174;2023-03-20T02:12:53;1.90;;;1.45;;
48751;SDS011;34544;48.836;9.174;2023-03-20T02:15:29;1.73;;;1.20;;
48751;SDS011;34544;48.836;9.174;2023-03-20T02:18:07;1.35;;;1.10;;
48751;SDS011;34544;48.836;9.174;2023-03-20T02:23:29;3.67;;;1.42;;
48751;SDS011;34544;48.836;9.174;2023-03-20T02:26:45;1.75;;;1.05;;
48751;SDS011;34544;48.836;9.174;2023-03-20T02:35:09;1.23;;;1.10;;
48751;SDS011;34544;48.836;9.174;2023-03-20T02:43:34;1.65;;;0.93;;
48751;SDS011;34544;48.836;9.174;2023-03-20T02:46:35;1.00;;;0.90;;
48751;SDS011;34544;48.836;9.174;2023-03-20T02:55:13;0.95;;;0.93;;
48751;SDS011;34544;48.836;9.174;2023-03-20T03:01:26;1.33;;;0.75;;
48751;SDS011;34544;48.836;9.174;2023-03-20T03:04:07;0.55;;;0.55;;
48751;SDS011;34544;48.836;9.174;2023-03-20T03:06:37;0.82;;;0.70;;
48751;SDS011;34544;48.836;9.174;2023-03-20T03:11:43;0.93;;;0.88;;
48751;SDS011;34544;48.836;9.174;2023-03-20T03:14:20;0.95;;;0.50;;
48751;SDS011;34544;48.836;9.174;2023-03-20T03:17:12;1.08;;;0.60;;
48751;SDS011;34544;48.836;9.174;2023-03-20T03:19:42;0.98;;;0.38;;
48751;SDS011;34544;48.836;9.174;2023-03-20T03:22:13;0.70;;;0.70;;
48751;SDS011;34544;48.836;9.174;2023-03-20T03:24:44;0.38;;;0.38;;
48751;SDS011;34544;48.836;9.174;2023-03-20T03:27:19;0.50;;;0.50;;
48751;SDS011;34544;48.836;9.174;2023-03-20T03:29:49;3.63;;;0.70;;
48751;SDS011;34544;48.836;9.174;2023-03-20T03:32:26;0.70;;;0.57;;
48751;SDS011;34544;48.836;9.174;2023-03-20T03:35:02;0.38;;;0.38;;
48751;SDS011;34544;48.836;9.174;2023-03-20T03:40:15;0.50;;;0.50;;
48751;SDS011;34544;48.836;9.174;2023-03-20T03:43:00;0.50;;;0.50;;
48751;SDS011;34544;48.836;9.174;2023-03-20T03:45:38;3.42;;;0.40;;
48751;SDS011;34544;48.836;9.174;2023-03-20T03:48:18;0.57;;;0.50;;
48751;SDS011;34544;48.836;9.174;2023-03-20T03:50:49;0.95;;;0.68;;
48751;SDS011;34544;48.836;9.174;2023-03-20T03:53:24;2.28;;;0.52;;
48751;SDS011;34544;48.836;9.174;2023-03-20T03:55:57;0.60;;;0.57;;
48751;SDS011;34544;48.836;9.174;2023-03-20T03:58:35;0.80;;;0.47;;
48751;SDS011;34544;48.836;9.174;2023-03-20T04:01:05;0.45;;;0.40;;
48751;SDS011;34544;48.836;9.174;2023-03-20T04:03:39;2.40;;;0.73;;
48751;SDS011;34544;48.836;9.174;2023-03-20T04:06:07;0.80;;;0.60;;
48751;SDS011;34544;48.836;9.174;2023-03-20T04:08:38;0.55;;;0.55;;
48751;SDS011;34544;48.836;9.174;2023-03-20T04:11:04;0.60;;;0.57;;
48751;SDS011;34544;48.836;9.174;2023-03-20T04:13:30;0.70;;;0.50;;
48751;SDS011;34544;48.836;9.174;2023-03-20T04:15:56;0.93;;;0.63;;
48751;SDS011;34544;48.836;9.174;2023-03-20T04:18:24;1.33;;;0.65;;
48751;SDS011;34544;48.836;9.174;2023-03-20T04:20:50;2.10;;;0.50;;
48751;SDS011;34544;48.836;9.174;2023-03-20T04:23:16;0.82;;;0.55;;
48751;SDS011;34544;48.836;9.174;2023-03-20T04:25:42;0.85;;;0.50;;
48751;SDS011;34544;48.836;9.174;2023-03-20T04:28:08;0.88;;;0.80;;
48751;SDS011;34544;48.836;9.174;2023-03-20T04:30:54;0.80;;;0.65;;
48751;SDS011;34544;48.836;9.174;2023-03-20T04:33:42;1.05;;;0.52;;
48751;SDS011;34544;48.836;9.174;2023-03-20T04:36:26;0.73;;;0.60;;
48751;SDS011;34544;48.836;9.174;2023-03-20T04:38:53;0.38;;;0.38;;
48751;SDS011;34544;48.836;9.174;2023-03-20T04:41:19;0.85;;;0.70;;
48751;SDS011;34544;48.836;9.174;2023-03-20T04:43:48;1.75;;;0.80;;
48751;SDS011;34544;48.836;9.174;2023-03-20T04:46:14;1.75;;;0.73;;
48751;SDS011;34544;48.836;9.174;2023-03-20T04:48:40;1.90;;;1.02;;
48751;SDS011;34544;48.836;9.174;2023-03-20T04:51:09;0.95;;;0.85;;
48751;SDS011;34544;48.836;9.174;2023-03-20T04:53:42;1.25;;;1.10;;
48751;SDS011;34544;48.836;9.174;2023-03-20T04:56:08;3.25;;;1.20;;
48751;SDS011;34544;48.836;9.174;2023-03-20T04:58:34;1.95;;;1.00;;
48751;SDS011;34544;48.836;9.174;2023-03-20T05:01:01;1.40;;;0.98;;
48751;SDS011;34544;48.836;9.174;2023-03-20T05:03:27;2.38;;;1.30;;
48751;SDS011;34544;48.836;9.174;2023-03-20T05:05:52;2.63;;;0.77;;
48751;SDS011;34544;48.836;9.174;2023-03-20T05:08:18;0.80;;;0.70;;
48751;SDS011;34544;48.836;9.174;2023-03-20T05:10:45;2.60;;;1.17;;
48751;SDS011;34544;48.836;9.174;2023-03-20T05:13:30;4.38;;;0.93;;
48751;SDS011;34544;48.836;9.174;2023-03-20T05:16:13;2.38;;;1.55;;
48751;SDS011;34544;48.836;9.174;2023-03-20T05:18:53;0.90;;;0.73;;
48751;SDS011;34544;48.836;9.174;2023-03-20T05:21:48;1.88;;;0.65;;
48751;SDS011;34544;48.836;9.174;2023-03-20T05:24:37;0.60;;;0.50;;
48751;SDS011;34544;48.836;9.174;2023-03-20T05:27:22;1.35;;;0.90;;
48751;SDS011;34544;48.836;9.174;2023-03-20T05:30:23;1.20;;;0.70;;
48751;SDS011;34544;48.836;9.174;2023-03-20T05:33:22;1.40;;;0.80;;
48751;SDS011;34544;48.836;9.174;2023-03-20T05:36:05;0.40;;;0.40;;
48751;SDS011;34544;48.836;9.174;2023-03-20T05:38:51;2.40;;;0.60;;
48751;SDS011;34544;48.836;9.174;2023-03-20T05:41:24;0.70;;;0.70;;
48751;SDS011;34544;48.836;9.174;2023-03-20T05:44:10;1.92;;;0.77;;
48751;SDS011;34544;48.836;9.174;2023-03-20T05:46:50;2.25;;;1.10;;
48751;SDS011;34544;48.836;9.174;2023-03-20T05:49:25;1.20;;;1.08;;
48751;SDS011;34544;48.836;9.174;2023-03-20T05:52:09;0.73;;;0.70;;
48751;SDS011;34544;48.836;9.174;2023-03-20T05:54:55;1.25;;;0.90;;
48751;SDS011;34544;48.836;9.174;2023-03-20T05:57:34;1.58;;;1.02;;
48751;SDS011;34544;48.836;9.174;2023-03-20T06:00:17;1.20;;;0.95;;
48751;SDS011;34544;48.836;9.174;2023-03-20T06:02:57;1.27;;;0.85;;
48751;SDS011;34544;48.836;9.174;2023-03-20T06:05:39;2.85;;;0.90;;
48751;SDS011;34544;48.836;9.174;2023-03-20T06:08:06;2.40;;;1.00;;
48751;SDS011;34544;48.836;9.174;2023-03-20T06:10:32;2.67;;;1.00;;
48751;SDS011;34544;48.836;9.174;2023-03-20T06:12:58;2.78;;;1.10;;
48751;SDS011;34544;48.836;9.174;2023-03-20T06:15:26;1.80;;;1.15;;
48751;SDS011;34544;48.836;9.174;2023-03-20T06:18:00;5.03;;;0.80;;
48751;SDS011;34544;48.836;9.174;2023-03-20T06:20:26;1.25;;;1.00;;
48751;SDS011;34544;48.836;9.174;2023-03-20T06:22:51;2.10;;;1.00;;
48751;SDS011;34544;48.836;9.174;2023-03-20T06:25:17;2.13;;;1.13;;
48751;SDS011;34544;48.836;9.174;2023-03-20T06:27:47;2.28;;;0.75;;
48751;SDS011;34544;48.836;9.174;2023-03-20T06:30:13;3.65;;;1.13;;
48751;SDS011;34544;48.836;9.174;2023-03-20T06:32:40;2.13;;;0.75;;
48751;SDS011;34544;48.836;9.174;2023-03-20T06:35:09;1.98;;;1.10;;
48751;SDS011;34544;48.836;9.174;2023-03-20T06:37:38;1.05;;;0.88;;
48751;SDS011;34544;48.836;9.174;2023-03-20T06:40:10;0.88;;;0.75;;
48751;SDS011;34544;48.836;9.174;2023-03-20T06:42:36;1.27;;;0.80;;
48751;SDS011;34544;48.836;9.174;2023-03-20T06:45:04;1.35;;;0.90;;
48751;SDS011;34544;48.836;9.174;2023-03-20T06:47:42;1.38;;;1.08;;
48751;SDS011;34544;48.836;9.174;2023-03-20T06:50:08;2.53;;;1.15;;
48751;SDS011;34544;48.836;9.174;2023-03-20T06:52:34;1.98;;;1.00;;
48751;SDS011;34544;48.836;9.174;2023-03-20T06:55:26;3.45;;;1.38;;
48751;SDS011;34544;48.836;9.174;2023-03-20T06:57:52;2.25;;;1.17;;
48751;SDS011;34544;48.836;9.174;2023-03-20T07:00:18;1.17;;;0.80;;
48751;SDS011;34544;48.836;9.174;2023-03-20T07:02:45;3.53;;;1.25;;
48751;SDS011;34544;48.836;9.174;2023-03-20T07:05:14;1.73;;;1.38;;
48751;SDS011;34544;48.836;9.174;2023-03-20T07:07:40;1.45;;;1.10;;
48751;SDS011;34544;48.836;9.174;2023-03-20T07:10:06;2.08;;;1.23;;
48751;SDS011;34544;48.836;9.174;2023-03-20T07:12:34;0.82;;;0.80;;
48751;SDS011;34544;48.836;9.174;2023-03-20T07:15:00;1.02;;;0.88;;
48751;SDS011;34544;48.836;9.174;2023-03-20T07:17:26;1.80;;;1.00;;
48751;SDS011;34544;48.836;9.174;2023-03-20T07:19:52;1.42;;;1.10;;
48751;SDS011;34544;48.836;9.174;2023-03-20T07:22:22;1.23;;;0.85;;
48751;SDS011;34544;48.836;9.174;2023-03-20T07:24:51;1.63;;;1.05;;
48751;SDS011;34544;48.836;9.174;2023-03-20T07:27:19;1.00;;;0.88;;
48751;SDS011;34544;48.836;9.174;2023-03-20T07:29:47;2.88;;;1.05;;
48751;SDS011;34544;48.836;9.174;2023-03-20T07:32:16;2.35;;;1.15;;
48751;SDS011;34544;48.836;9.174;2023-03-20T07:34:47;3.15;;;1.00;;
48751;SDS011;34544;48.836;9.174;2023-03-20T07:37:15;2.22;;;1.77;;
48751;SDS011;34544;48.836;9.174;2023-03-20T07:39:51;1.42;;;0.77;;
48751;SDS011;34544;48.836;9.174;2023-03-20T07:42:31;3.92;;;1.02;;
48751;SDS011;34544;48.836;9.174;2023-03-20T07:45:04;1.20;;;0.93;;
48751;SDS011;34544;48.836;9.174;2023-03-20T07:47:30;2.38;;;1.45;;
48751;SDS011;34544;48.836;9.174;2023-03-20T07:49:56;1.30;;;1.10;;
48751;SDS011;34544;48.836;9.174;2023-03-20T07:52:22;2.00;;;1.00;;
48751;SDS011;34544;48.836;9.174;2023-03-20T07:54:48;2.78;;;1.00;;
48751;SDS011;34544;48.836;9.174;2023-03-20T07:57:13;1.63;;;1.00;;
48751;SDS011;34544;48.836;9.174;2023-03-20T07:59:39;1.15;;;0.90;;
48751;SDS011;34544;48.836;9.174;2023-03-20T08:02:05;1.17;;;0.73;;
48751;SDS011;34544;48.836;9.174;2023-03-20T08:04:30;1.05;;;0.85;;
48751;SDS011;34544;48.836;9.174;2023-03-20T08:06:56;0.95;;;0.85;;
48751;SDS011;34544;48.836;9.174;2023-03-20T08:09:22;1.02;;;0.63;;
48751;SDS011;34544;48.836;9.174;2023-03-20T08:11:48;0.93;;;0.70;;
48751;SDS011;34544;48.836;9.174;2023-03-20T08:14:13;0.82;;;0.50;;
48751;SDS011;34544;48.836;9.174;2023-03-20T08:16:39;1.42;;;0.85;;
48751;SDS011;34544;48.836;9.174;2023-03-20T08:19:05;1.05;;;0.82;;
48751;SDS011;34544;48.836;9.174;2023-03-20T08:21:31;1.25;;;0.90;;
48751;SDS011;34544;48.836;9.174;2023-03-20T08:23:57;1.05;;;0.90;;
48751;SDS011;34544;48.836;9.174;2023-03-20T08:26:23;1.20;;;0.80;;
48751;SDS011;34544;48.836;9.174;2023-03-20T08:28:49;1.00;;;0.80;;
48751;SDS011;34544;48.836;9.174;2023-03-20T08:31:15;2.03;;;0.93;;
48751;SDS011;34544;48.836;9.174;2023-03-20T08:33:42;1.58;;;0.80;;
48751;SDS011;34544;48.836;9.174;2023-03-20T08:36:09;2.13;;;1.10;;
48751;SDS011;34544;48.836;9.174;2023-03-20T08:38:38;1.73;;;1.23;;
48751;SDS011;34544;48.836;9.174;2023-03-20T08:41:04;1.25;;;1.10;;
48751;SDS011;34544;48.836;9.174;2023-03-20T08:43:31;1.38;;;1.00;;
48751;SDS011;34544;48.836;9.174;2023-03-20T08:45:56;1.60;;;0.93;;
48751;SDS011;34544;48.836;9.174;2023-03-20T08:48:22;1.50;;;1.00;;
48751;SDS011;34544;48.836;9.174;2023-03-20T08:50:47;1.33;;;1.10;;
48751;SDS011;34544;48.836;9.174;2023-03-20T08:53:13;4.30;;;1.02;;
48751;SDS011;34544;48.836;9.174;2023-03-20T08:55:39;1.30;;;1.00;;
48751;SDS011;34544;48.836;9.174;2023-03-20T08:58:04;2.30;;;0.90;;
48751;SDS011;34544;48.836;9.174;2023-03-20T09:00:30;1.48;;;1.10;;
48751;SDS011;34544;48.836;9.174;2023-03-20T09:02:56;1.50;;;1.05;;
48751;SDS011;34544;48.836;9.174;2023-03-20T09:05:21;2.50;;;1.30;;
48751;SDS011;34544;48.836;9.174;2023-03-20T09:07:47;1.98;;;1.30;;
48751;SDS011;34544;48.836;9.174;2023-03-20T09:10:13;4.40;;;1.23;;
48751;SDS011;34544;48.836;9.174;2023-03-20T09:12:39;2.92;;;1.60;;
48751;SDS011;34544;48.836;9.174;2023-03-20T09:15:05;0.82;;;0.80;;
48751;SDS011;34544;48.836;9.174;2023-03-20T09:17:32;1.17;;;1.00;;
48751;SDS011;34544;48.836;9.174;2023-03-20T09:19:57;1.15;;;0.95;;
48751;SDS011;34544;48.836;9.174;2023-03-20T09:22:23;1.05;;;0.82;;
48751;SDS011;34544;48.836;9.174;2023-03-20T09:24:49;3.03;;;1.50;;
48751;SDS011;34544;48.836;9.174;2023-03-20T09:27:15;2.50;;;1.08;;
48751;SDS011;34544;48.836;9.174;2023-03-20T09:29:41;4.32;;;1.10;;
48751;SDS011;34544;48.836;9.174;2023-03-20T09:32:09;5.07;;;3.97;;
48751;SDS011;34544;48.836;9.174;2023-03-20T09:34:39;2.90;;;2.65;;
48751;SDS011;34544;48.836;9.174;2023-03-20T09:37:05;1.17;;;0.80;;
48751;SDS011;34544;48.836;9.174;2023-03-20T09:39:31;1.65;;;1.42;;
48751;SDS011;34544;48.836;9.174;2023-03-20T09:42:07;3.13;;;0.90;;
48751;SDS011;34544;48.836;9.174;2023-03-20T09:47:42;2.80;;;1.30;;
48751;SDS011;34544;48.836;9.174;2023-03-20T09:53:01;1.83;;;1.02;;
48751;SDS011;34544;48.836;9.174;2023-03-20T09:55:41;6.28;;;3.47;;
48751;SDS011;34544;48.836;9.174;2023-03-20T09:58:12;1.35;;;0.85;;
48751;SDS011;34544;48.836;9.174;2023-03-20T10:00:43;1.92;;;1.10;;
48751;SDS011;34544;48.836;9.174;2023-03-20T10:03:31;1.17;;;1.08;;
48751;SDS011;34544;48.836;9.174;2023-03-20T10:06:14;1.05;;;0.90;;
48751;SDS011;34544;48.836;9.174;2023-03-20T10:08:42;1.25;;;0.98;;
48751;SDS011;34544;48.836;9.174;2023-03-20T10:13:38;1.92;;;1.40;;
48751;SDS011;34544;48.836;9.174;2023-03-20T10:18:47;1.98;;;1.63;;
48751;SDS011;34544;48.836;9.174;2023-03-20T10:21:21;2.22;;;1.70;;
48751;SDS011;34544;48.836;9.174;2023-03-20T10:26:26;2.95;;;2.20;;
48751;SDS011;34544;48.836;9.174;2023-03-20T10:28:59;2.35;;;2.15;;
48751;SDS011;34544;48.836;9.174;2023-03-20T10:31:38;4.85;;;3.05;;
48751;SDS011;34544;48.836;9.174;2023-03-20T10:39:49;2.45;;;1.95;;
48751;SDS011;34544;48.836;9.174;2023-03-20T10:42:37;2.20;;;1.88;;
48751;SDS011;34544;48.836;9.174;2023-03-20T10:47:50;4.20;;;2.60;;
48751;SDS011;34544;48.836;9.174;2023-03-20T10:50:17;5.80;;;3.30;;
48751;SDS011;34544;48.836;9.174;2023-03-20T10:52:47;4.32;;;3.00;;
48751;SDS011;34544;48.836;9.174;2023-03-20T10:55:15;3.92;;;3.58;;
48751;SDS011;34544;48.836;9.174;2023-03-20T10:57:47;4.63;;;3.65;;
48751;SDS011;34544;48.836;9.174;2023-03-20T11:00:22;4.60;;;3.80;;
48751;SDS011;34544;48.836;9.174;2023-03-20T11:02:49;6.80;;;4.10;;
48751;SDS011;34544;48.836;9.174;2023-03-20T11:05:32;6.10;;;3.35;;
48751;SDS011;34544;48.836;9.174;2023-03-20T11:08:11;4.93;;;3.53;;
48751;SDS011;34544;48.836;9.174;2023-03-20T11:10:39;5.28;;;3.92;;
48751;SDS011;34544;48.836;9.174;2023-03-20T11:14:06;6.35;;;3.75;;
48751;SDS011;34544;48.836;9.174;2023-03-20T11:16:13;8.20;;;4.10;;
48751;SDS011;34544;48.836;9.174;2023-03-20T11:18:48;8.70;;;4.35;;
48751;SDS011;34544;48.836;9.174;2023-03-20T11:21:26;4.63;;;3.30;;
48751;SDS011;34544;48.836;9.174;2023-03-20T11:23:53;4.47;;;4.05;;
48751;SDS011;34544;48.836;9.174;2023-03-20T11:26:36;4.95;;;3.92;;
48751;SDS011;34544;48.836;9.174;2023-03-20T11:29:04;7.13;;;3.92;;
48751;SDS011;34544;48.836;9.174;2023-03-20T11:31:40;6.68;;;4.50;;
48751;SDS011;34544;48.836;9.174;2023-03-20T11:34:08;7.40;;;4.97;;
48751;SDS011;34544;48.836;9.174;2023-03-20T11:36:56;8.43;;;5.00;;
48751;SDS011;34544;48.836;9.174;2023-03-20T11:39:24;7.38;;;5.00;;
48751;SDS011;34544;48.836;9.174;2023-03-20T11:41:53;5.47;;;4.32;;
48751;SDS011;34544;48.836;9.174;2023-03-20T11:44:27;6.35;;;4.95;;
48751;SDS011;34544;48.836;9.174;2023-03-20T11:46:57;6.20;;;4.90;;
48751;SDS011;34544;48.836;9.174;2023-03-20T11:49:27;7.78;;;5.80;;
48751;SDS011;34544;48.836;9.174;2023-03-20T11:52:28;6.50;;;4.72;;
48751;SDS011;34544;48.836;9.174;2023-03-20T11:54:51;7.68;;;5.47;;
48751;SDS011;34544;48.836;9.174;2023-03-20T12:00:02;6.03;;;4.55;;
48751;SDS011;34544;48.836;9.174;2023-03-20T12:02:31;4.80;;;4.05;;
48751;SDS011;34544;48.836;9.174;2023-03-20T12:04:59;6.43;;;4.53;;
48751;SDS011;34544;48.836;9.174;2023-03-20T12:07:27;7.13;;;4.40;;
48751;SDS011;34544;48.836;9.174;2023-03-20T12:12:46;5.57;;;3.72;;
48751;SDS011;34544;48.836;9.174;2023-03-20T12:15:15;11.10;;;4.65;;
48751;SDS011;34544;48.836;9.174;2023-03-20T12:22:55;6.53;;;4.20;;
48751;SDS011;34544;48.836;9.174;2023-03-20T12:36:28;4.35;;;3.95;;
48751;SDS011;34544;48.836;9.174;2023-03-20T12:39:03;4.63;;;3.63;;
48751;SDS011;34544;48.836;9.174;2023-03-20T12:41:39;4.35;;;3.53;;
48751;SDS011;34544;48.836;9.174;2023-03-20T12:44:28;5.65;;;3.70;;
48751;SDS011;34544;48.836;9.174;2023-03-20T12:50:23;4.43;;;3.60;;
48751;SDS011;34544;48.836;9.174;2023-03-20T13:01:18;5.97;;;3.80;;
48751;SDS011;34544;48.836;9.174;2023-03-20T13:03:53;5.20;;;3.78;;
48751;SDS011;34544;48.836;9.174;2023-03-20T13:12:16;4.25;;;3.25;;
48751;SDS011;34544;48.836;9.174;2023-03-20T13:15:08;5.78;;;3.20;;
48751;SDS011;34544;48.836;9.174;2023-03-20T13:18:12;4.22;;;3.17;;
48751;SDS011;34544;48.836;9.174;2023-03-20T13:20:48;7.63;;;4.03;;
48751;SDS011;34544;48.836;9.174;2023-03-20T13:23:29;10.57;;;8.10;;
48751;SDS011;34544;48.836;9.174;2023-03-20T13:31:52;3.88;;;2.85;;
48751;SDS011;34544;48.836;9.174;2023-03-20T13:34:36;3.83;;;2.38;;
48751;SDS011;34544;48.836;9.174;2023-03-20T13:37:29;2.80;;;2.30;;
48751;SDS011;34544;48.836;9.174;2023-03-20T13:40:05;3.90;;;2.35;;
48751;SDS011;34544;48.836;9.174;2023-03-20T13:42:37;2.05;;;1.65;;
48751;SDS011;34544;48.836;9.174;2023-03-20T13:48:20;2.95;;;2.20;;
48751;SDS011;34544;48.836;9.174;2023-03-20T13:53:29;3.35;;;1.92;;
48751;SDS011;34544;48.836;9.174;2023-03-20T13:58:38;4.43;;;1.75;;
48751;SDS011;34544;48.836;9.174;2023-03-20T14:03:57;3.45;;;2.30;;
48751;SDS011;34544;48.836;9.174;2023-03-20T14:08:57;2.30;;;1.45;;
48751;SDS011;34544;48.836;9.174;2023-03-20T14:11:25;3.45;;;1.73;;
48751;SDS011;34544;48.836;9.174;2023-03-20T14:14:05;3.55;;;2.22;;
48751;SDS011;34544;48.836;9.174;2023-03-20T14:16:44;2.53;;;1.88;;
48751;SDS011;34544;48.836;9.174;2023-03-20T14:21:46;3.08;;;1.85;;
48751;SDS011;34544;48.836;9.174;2023-03-20T14:24:14;2.53;;;1.83;;
48751;SDS011;34544;48.836;9.174;2023-03-20T14:26:42;4.53;;;1.70;;
48751;SDS011;34544;48.836;9.174;2023-03-20T14:31:40;3.08;;;1.48;;
48751;SDS011;34544;48.836;9.174;2023-03-20T14:34:07;4.30;;;1.45;;
48751;SDS011;34544;48.836;9.174;2023-03-20T14:36:42;5.80;;;1.50;;
48751;SDS011;34544;48.836;9.174;2023-03-20T14:50:36;1.23;;;0.90;;
48751;SDS011;34544;48.836;9.174;2023-03-20T14:53:23;3.28;;;1.60;;
48751;SDS011;34544;48.836;9.174;2023-03-20T14:58:41;3.90;;;2.15;;
48751;SDS011;34544;48.836;9.174;2023-03-20T15:01:14;3.13;;;2.08;;
48751;SDS011;34544;48.836;9.174;2023-03-20T15:03:40;2.90;;;1.65;;
48751;SDS011;34544;48.836;9.174;2023-03-20T15:06:09;5.20;;;1.52;;
48751;SDS011;34544;48.836;9.174;2023-03-20T15:08:40;2.63;;;1.77;;
48751;SDS011;34544;48.836;9.174;2023-03-20T15:11:26;4.32;;;1.90;;
48751;SDS011;34544;48.836;9.174;2023-03-20T15:13:53;2.15;;;1.55;;
48751;SDS011;34544;48.836;9.174;2023-03-20T15:16:25;1.65;;;1.55;;
48751;SDS011;34544;48.836;9.174;2023-03-20T15:18:56;3.83;;;1.80;;
48751;SDS011;34544;48.836;9.174;2023-03-20T15:21:40;3.83;;;2.08;;
48751;SDS011;34544;48.836;9.174;2023-03-20T15:24:14;2.10;;;1.70;;
48751;SDS011;34544;48.836;9.174;2023-03-20T15:26:56;2.97;;;1.77;;
48751;SDS011;34544;48.836;9.174;2023-03-20T15:29:24;2.97;;;1.77;;
48751;SDS011;34544;48.836;9.174;2023-03-20T15:31:54;5.60;;;1.75;;
48751;SDS011;34544;48.836;9.174;2023-03-20T15:34:26;2.63;;;2.20;;
48751;SDS011;34544;48.836;9.174;2023-03-20T15:36:59;2.17;;;1.98;;
48751;SDS011;34544;48.836;9.174;2023-03-20T15:39:27;4.28;;;1.92;;
48751;SDS011;34544;48.836;9.174;2023-03-20T15:41:55;3.28;;;2.00;;
48751;SDS011;34544;48.836;9.174;2023-03-20T15:44:23;4.43;;;2.22;;
48751;SDS011;34544;48.836;9.174;2023-03-20T15:49:17;3.03;;;2.10;;
48751;SDS011;34544;48.836;9.174;2023-03-20T15:51:43;6.63;;;2.50;;
48751;SDS011;34544;48.836;9.174;2023-03-20T15:54:10;6.85;;;3.10;;
48751;SDS011;34544;48.836;9.174;2023-03-20T15:56:39;5.13;;;2.58;;
48751;SDS011;34544;48.836;9.174;2023-03-20T15:59:12;4.43;;;2.25;;
48751;SDS011;34544;48.836;9.174;2023-03-20T16:01:41;2.70;;;2.00;;
48751;SDS011;34544;48.836;9.174;2023-03-20T16:04:09;8.10;;;1.80;;
48751;SDS011;34544;48.836;9.174;2023-03-20T16:06:43;3.50;;;2.08;;
48751;SDS011;34544;48.836;9.174;2023-03-20T16:09:15;7.20;;;2.17;;
48751;SDS011;34544;48.836;9.174;2023-03-20T16:11:43;3.90;;;1.85;;
48751;SDS011;34544;48.836;9.174;2023-03-20T16:14:16;3.70;;;2.20;;
48751;SDS011;34544;48.836;9.174;2023-03-20T16:16:47;3.00;;;1.58;;
48751;SDS011;34544;48.836;9.174;2023-03-20T16:19:14;3.60;;;1.60;;
48751;SDS011;34544;48.836;9.174;2023-03-20T16:21:51;4.60;;;1.77;;
48751;SDS011;34544;48.836;9.174;2023-03-20T16:24:21;3.15;;;1.92;;
48751;SDS011;34544;48.836;9.174;2023-03-20T16:26:51;4.72;;;1.88;;
48751;SDS011;34544;48.836;9.174;2023-03-20T16:29:18;6.85;;;1.95;;
48751;SDS011;34544;48.836;9.174;2023-03-20T16:31:47;2.38;;;1.58;;
48751;SDS011;34544;48.836;9.174;2023-03-20T16:34:19;2.85;;;1.67;;
48751;SDS011;34544;48.836;9.174;2023-03-20T16:36:51;5.40;;;2.88;;
48751;SDS011;34544;48.836;9.174;2023-03-20T16:39:23;3.83;;;2.63;;
48751;SDS011;34544;48.836;9.174;2023-03-20T16:42:24;3.83;;;2.20;;
48751;SDS011;34544;48.836;9.174;2023-03-20T16:44:47;3.88;;;2.38;;
48751;SDS011;34544;48.836;9.174;2023-03-20T16:47:21;3.67;;;2.95;;
48751;SDS011;34544;48.836;9.174;2023-03-20T16:49:50;2.43;;;2.23;;
48751;SDS011;34544;48.836;9.174;2023-03-20T16:52:16;3.92;;;2.95;;
48751;SDS011;34544;48.836;9.174;2023-03-20T16:54:57;3.80;;;3.28;;
48751;SDS011;34544;48.836;9.174;2023-03-20T16:57:24;3.13;;;2.22;;
48751;SDS011;34544;48.836;9.174;2023-03-20T16:59:51;4.85;;;2.58;;
48751;SDS011;34544;48.836;9.174;2023-03-20T17:02:28;3.47;;;2.25;;
48751;SDS011;34544;48.836;9.174;2023-03-20T17:05:00;3.40;;;2.67;;
48751;SDS011;34544;48.836;9.174;2023-03-20T17:07:28;4.72;;;2.58;;
48751;SDS011;34544;48.836;9.174;2023-03-20T17:12:40;3.55;;;2.55;;
48751;SDS011;34544;48.836;9.174;2023-03-20T17:15:08;7.60;;;2.83;;
48751;SDS011;34544;48.836;9.174;2023-03-20T17:17:38;5.88;;;2.47;;
48751;SDS011;34544;48.836;9.174;2023-03-20T17:20:03;5.25;;;3.40;;
48751;SDS011;34544;48.836;9.174;2023-03-20T17:22:29;3.35;;;2.30;;
48751;SDS011;34544;48.836;9.174;2023-03-20T17:24:57;2.60;;;1.90;;
48751;SDS011;34544;48.836;9.174;2023-03-20T17:27:24;3.55;;;2.85;;
48751;SDS011;34544;48.836;9.174;2023-03-20T17:29:51;2.60;;;2.17;;
48751;SDS011;34544;48.836;9.174;2023-03-20T17:32:20;6.82;;;2.67;;
48751;SDS011;34544;48.836;9.174;2023-03-20T17:34:49;3.15;;;2.45;;
48751;SDS011;34544;48.836;9.174;2023-03-20T17:37:22;3.85;;;2.72;;